createdAt,value
2018-09-25T00:02:13.266Z,78.06
2018-09-25T00:04:47.952Z,77.56
2018-09-25T00:07:22.513Z,77.92
2018-09-25T00:09:57.243Z,76.95
2018-09-25T00:12:32.047Z,77.01
2018-09-25T00:15:06.769Z,77.29
2018-09-25T00:17:41.575Z,77.47
2018-09-25T00:20:16.155Z,78.22
2018-09-25T00:22:50.859Z,78.46
2018-09-25T00:25:26.163Z,77.98
2018-09-25T00:28:01.915Z,78.42
2018-09-25T00:30:36.751Z,78.72
2018-09-25T00:33:11.695Z,78.89
2018-09-25T00:35:46.319Z,77.84
2018-09-25T00:38:21.393Z,78.27
2018-09-25T00:40:56.061Z,78.90
2018-09-25T00:43:31.033Z,78.20
2018-09-25T00:46:05.692Z,77.56
2018-09-25T00:48:40.557Z,78.00
2018-09-25T00:51:15.523Z,77.75
2018-09-25T00:53:50.312Z,78.66
2018-09-25T00:56:25.219Z,77.99
2018-09-25T00:59:00.108Z,77.31
2018-09-25T01:01:34.811Z,77.44
2018-09-25T01:04:09.551Z,76.46
2018-09-25T01:06:44.497Z,76.65
2018-09-25T01:09:19.268Z,77.39
2018-09-25T01:11:54.020Z,77.38
2018-09-25T01:14:29.010Z,78.36
2018-09-25T01:17:03.799Z,78.95
2018-09-25T01:19:38.704Z,79.77
2018-09-25T01:22:13.438Z,78.44
2018-09-25T01:24:48.328Z,79.14
2018-09-25T01:27:23.563Z,78.85
2018-09-25T01:29:58.676Z,78.44
2018-09-25T01:32:33.620Z,79.23
2018-09-25T01:35:08.805Z,77.45
2018-09-25T01:37:43.860Z,77.08
2018-09-25T01:40:19.238Z,77.89
2018-09-25T01:42:54.516Z,78.53
2018-09-25T01:45:29.667Z,78.09
2018-09-25T01:48:04.538Z,77.74
2018-09-25T01:50:39.147Z,77.64
2018-09-25T01:53:14.023Z,78.67
2018-09-25T01:55:49.280Z,79.01
2018-09-25T01:58:24.263Z,79.17
2018-09-25T02:00:59.138Z,78.96
2018-09-25T02:03:33.872Z,78.76
2018-09-25T02:06:08.697Z,78.77
2018-09-25T02:08:43.683Z,78.15
2018-09-25T02:11:18.863Z,78.57
2018-09-25T02:13:53.817Z,79.09
2018-09-25T02:16:28.798Z,79.13
2018-09-25T02:19:03.518Z,79.29
2018-09-25T02:21:38.367Z,79.69
2018-09-25T02:24:13.363Z,78.70
2018-09-25T02:26:48.251Z,78.56
2018-09-25T02:29:23.347Z,78.02
2018-09-25T02:31:58.502Z,77.93
2018-09-25T02:34:33.616Z,79.05
2018-09-25T02:37:08.643Z,78.64
2018-09-25T02:39:43.733Z,78.40
2018-09-25T02:42:18.752Z,79.56
2018-09-25T02:44:53.771Z,78.83
2018-09-25T02:47:28.835Z,78.56
2018-09-25T02:50:03.840Z,79.10
2018-09-25T02:52:38.959Z,79.07
2018-09-25T02:55:13.983Z,77.67
2018-09-25T02:57:48.893Z,76.93
2018-09-25T03:00:23.718Z,78.03
2018-09-25T03:02:58.927Z,77.81
2018-09-25T03:05:33.779Z,79.24
2018-09-25T03:08:08.695Z,77.77
2018-09-25T03:10:43.761Z,77.14
2018-09-25T03:13:18.700Z,77.04
2018-09-25T03:15:53.670Z,77.86
2018-09-25T03:18:28.655Z,77.58
2018-09-25T03:21:03.831Z,77.75
2018-09-25T03:23:38.931Z,77.63
2018-09-25T03:26:14.480Z,77.36
2018-09-25T03:28:49.902Z,78.36
2018-09-25T03:31:24.747Z,78.11
2018-09-25T03:33:59.603Z,78.06
2018-09-25T03:36:34.435Z,78.51
2018-09-25T03:39:10.391Z,79.56
2018-09-25T03:41:45.328Z,79.76
2018-09-25T03:44:20.508Z,79.00
2018-09-25T03:46:55.514Z,78.08
2018-09-25T03:49:30.571Z,78.67
2018-09-25T03:52:05.480Z,80.22
2018-09-25T03:54:40.584Z,80.56
2018-09-25T03:57:15.779Z,80.80
2018-09-25T03:59:50.784Z,79.45
2018-09-25T04:02:25.672Z,79.52
2018-09-25T04:05:00.803Z,80.02
2018-09-25T04:07:35.916Z,79.28
2018-09-25T04:10:11.055Z,79.69
2018-09-25T04:12:46.177Z,78.17
2018-09-25T04:15:21.063Z,78.13
2018-09-25T04:17:55.959Z,79.53
2018-09-25T04:20:31.115Z,79.55
2018-09-25T04:23:06.597Z,79.08
2018-09-25T04:25:41.664Z,79.17
2018-09-25T04:28:16.887Z,78.01
2018-09-25T04:30:52.107Z,78.68
2018-09-25T04:33:26.938Z,78.55
2018-09-25T04:36:01.914Z,78.38
2018-09-25T04:38:37.095Z,78.75
2018-09-25T04:41:12.146Z,79.83
2018-09-25T04:43:47.172Z,79.07
2018-09-25T04:46:22.139Z,78.70
2018-09-25T04:48:57.203Z,78.37
2018-09-25T04:51:32.008Z,79.02
2018-09-25T04:54:06.945Z,79.02
2018-09-25T04:56:42.101Z,78.30
2018-09-25T04:59:17.167Z,78.81
2018-09-25T05:01:52.234Z,79.00
2018-09-25T05:04:27.080Z,79.53
2018-09-25T05:07:02.342Z,78.67
2018-09-25T05:09:37.742Z,78.78
2018-09-25T05:12:12.926Z,79.30
2018-09-25T05:14:48.240Z,79.59
2018-09-25T05:17:23.187Z,78.62
2018-09-25T05:19:58.073Z,79.47
2018-09-25T05:22:32.972Z,79.00
2018-09-25T05:25:07.838Z,79.02
2018-09-25T05:27:42.928Z,79.96
2018-09-25T05:30:17.922Z,79.37
2018-09-25T05:32:52.852Z,79.67
2018-09-25T05:35:27.924Z,79.35
2018-09-25T05:38:02.834Z,78.80
2018-09-25T05:40:38.229Z,78.50
2018-09-25T05:43:13.583Z,79.42
2018-09-25T05:45:48.455Z,78.61
2018-09-25T05:48:23.438Z,78.70
2018-09-25T05:50:58.719Z,77.84
2018-09-25T05:53:33.812Z,76.89
2018-09-25T05:56:08.695Z,76.51
2018-09-25T05:58:43.711Z,75.73
2018-09-25T06:01:18.671Z,75.58
2018-09-25T06:03:53.687Z,75.24
2018-09-25T06:06:28.548Z,74.52
2018-09-25T06:09:03.704Z,74.10
2018-09-25T06:11:40.092Z,73.50
2018-09-25T06:14:15.129Z,72.62
2018-09-25T06:16:49.907Z,71.30
2018-09-25T06:19:24.627Z,72.55
2018-09-25T06:21:59.680Z,72.05
2018-09-25T06:24:34.412Z,70.58
2018-09-25T06:27:09.159Z,70.47
2018-09-25T06:29:43.907Z,70.81
2018-09-25T06:32:19.132Z,71.05
2018-09-25T06:34:53.930Z,71.99
2018-09-25T06:37:29.139Z,69.96
2018-09-25T06:40:09.962Z,71.69
2018-09-25T06:42:44.615Z,70.57
2018-09-25T06:45:19.497Z,68.56
2018-09-25T06:47:54.112Z,68.97
2018-09-25T06:50:28.854Z,68.23
2018-09-25T06:53:03.568Z,67.48
2018-09-25T06:55:38.260Z,68.20
2018-09-25T06:58:12.880Z,68.60
2018-09-25T07:00:47.600Z,67.64
2018-09-25T07:03:22.362Z,66.53
2018-09-25T07:05:58.233Z,65.81
2018-09-25T07:08:32.968Z,65.42
2018-09-25T07:11:07.831Z,64.11
2018-09-25T07:13:42.493Z,67.05
2018-09-25T07:16:17.166Z,65.51
2018-09-25T07:18:51.956Z,65.26
2018-09-25T07:21:26.774Z,65.77
2018-09-25T07:24:01.421Z,65.85
2018-09-25T07:26:36.340Z,65.63
2018-09-25T07:29:10.920Z,63.70
2018-09-25T07:31:45.608Z,63.94
2018-09-25T07:34:20.364Z,66.22
2018-09-25T07:36:55.027Z,66.20
2018-09-25T07:39:29.944Z,63.85
2018-09-25T07:42:04.714Z,62.16
2018-09-25T07:44:39.556Z,62.55
2018-09-25T07:47:14.380Z,62.63
2018-09-25T07:49:49.276Z,62.30
2018-09-25T07:52:24.104Z,61.72
2018-09-25T07:54:58.925Z,60.98
2018-09-25T07:57:33.584Z,58.19
2018-09-25T08:00:08.669Z,60.64
2018-09-25T08:02:43.672Z,59.08
2018-09-25T08:05:19.232Z,55.62
2018-09-25T08:07:53.900Z,57.08
2018-09-25T08:10:28.865Z,54.68
2018-09-25T08:13:03.702Z,56.33
2018-09-25T08:15:38.523Z,54.08
2018-09-25T08:18:13.211Z,55.10
2018-09-25T08:20:48.104Z,53.64
2018-09-25T08:23:23.019Z,51.16
2018-09-25T08:25:58.575Z,51.98
2018-09-25T08:28:33.808Z,51.32
2018-09-25T08:31:11.231Z,50.50
2018-09-25T08:33:46.004Z,50.84
2018-09-25T08:36:22.724Z,49.36
2018-09-25T08:38:57.981Z,51.11
2018-09-25T08:41:33.094Z,49.22
2018-09-25T08:44:08.282Z,49.38
2018-09-25T08:46:43.933Z,48.81
2018-09-25T08:49:19.172Z,48.85
2018-09-25T08:51:54.228Z,48.48
2018-09-25T08:54:29.211Z,48.75
2018-09-25T08:57:03.991Z,48.42
2018-09-25T08:59:38.988Z,46.67
2018-09-25T09:02:14.155Z,46.58
2018-09-25T09:04:49.005Z,49.04
2018-09-25T09:07:23.937Z,46.83
2018-09-25T09:09:58.680Z,46.42
2018-09-25T09:12:33.511Z,47.71
2018-09-25T09:15:08.244Z,46.06
2018-09-25T09:17:43.376Z,45.48
2018-09-25T09:20:18.229Z,45.72
2018-09-25T09:22:53.275Z,45.33
2018-09-25T09:25:28.000Z,45.53
2018-09-25T09:28:02.748Z,47.02
2018-09-25T09:30:37.578Z,45.00
2018-09-25T09:33:12.791Z,45.98
2018-09-25T09:35:47.540Z,44.65
2018-09-25T09:38:22.382Z,44.87
2018-09-25T09:40:57.280Z,44.06
2018-09-25T09:43:32.535Z,45.76
2018-09-25T09:46:07.262Z,45.68
2018-09-25T09:48:42.094Z,46.31
2018-09-25T09:51:16.859Z,47.12
2018-09-25T09:53:51.556Z,47.57
2018-09-25T09:56:26.304Z,47.45
2018-09-25T09:59:01.245Z,47.05
2018-09-25T10:01:35.973Z,47.65
2018-09-25T10:04:10.675Z,45.82
2018-09-25T10:06:45.733Z,45.30
2018-09-25T10:09:20.508Z,45.74
2018-09-25T10:11:55.068Z,47.29
2018-09-25T10:14:29.877Z,46.86
2018-09-25T10:17:04.484Z,46.51
2018-09-25T10:19:39.271Z,46.90
2018-09-25T10:22:13.995Z,44.32
2018-09-25T10:24:48.843Z,46.62
2018-09-25T10:27:23.617Z,46.51
2018-09-25T10:29:58.544Z,46.57
2018-09-25T10:32:33.569Z,45.18
2018-09-25T10:35:08.299Z,45.54
2018-09-25T10:37:43.134Z,44.58
2018-09-25T10:40:17.969Z,45.53
2018-09-25T10:42:52.790Z,46.26
2018-09-25T10:45:27.795Z,44.70
2018-09-25T10:48:02.355Z,45.70
2018-09-25T10:50:37.182Z,44.78
2018-09-25T10:53:11.846Z,44.84
2018-09-25T10:55:46.994Z,45.82
2018-09-25T10:58:21.863Z,44.62
2018-09-25T11:00:56.719Z,45.93
2018-09-25T11:03:31.512Z,46.12
2018-09-25T11:06:06.520Z,46.11
2018-09-25T11:08:41.268Z,43.39
2018-09-25T11:11:16.535Z,43.98
2018-09-25T11:13:51.284Z,44.84
2018-09-25T11:16:25.987Z,44.29
2018-09-25T11:19:00.755Z,44.10
2018-09-25T11:21:35.384Z,44.14
2018-09-25T11:24:10.116Z,43.58
2018-09-25T11:26:45.172Z,43.61
2018-09-25T11:29:19.971Z,45.09
2018-09-25T11:31:54.721Z,44.86
2018-09-25T11:34:29.309Z,43.75
2018-09-25T11:37:04.291Z,44.71
2018-09-25T11:39:39.001Z,43.41
2018-09-25T11:42:13.858Z,44.37
2018-09-25T11:44:48.755Z,44.69
2018-09-25T11:47:23.554Z,43.62
2018-09-25T11:49:58.102Z,41.30
2018-09-25T11:52:32.988Z,43.02
2018-09-25T11:55:07.871Z,43.49
2018-09-25T11:57:42.676Z,42.36
2018-09-25T12:00:17.376Z,42.68
2018-09-25T12:02:52.115Z,42.19
2018-09-25T12:05:26.773Z,42.22
2018-09-25T12:08:01.563Z,42.21
2018-09-25T12:10:36.295Z,42.85
2018-09-25T12:13:10.979Z,42.65
2018-09-25T12:15:45.932Z,41.40
2018-09-25T12:18:20.688Z,41.78
2018-09-25T12:20:55.285Z,42.28
2018-09-25T12:23:29.939Z,42.13
2018-09-25T12:26:04.847Z,41.92
2018-09-25T12:28:39.740Z,42.42
2018-09-25T12:31:14.552Z,41.99
2018-09-25T12:33:49.436Z,40.70
2018-09-25T12:36:24.334Z,41.93
2018-09-25T12:38:59.572Z,41.15
2018-09-25T12:41:34.716Z,42.27
2018-09-25T12:44:09.912Z,41.37
2018-09-25T12:46:44.632Z,41.98
2018-09-25T12:49:19.371Z,41.96
2018-09-25T12:51:54.116Z,41.59
2018-09-25T12:54:28.925Z,41.88
2018-09-25T12:57:03.768Z,40.33
2018-09-25T12:59:38.587Z,40.29
2018-09-25T13:02:13.851Z,40.46
2018-09-25T13:04:48.503Z,40.85
2018-09-25T13:07:23.363Z,41.29
2018-09-25T13:09:58.360Z,40.74
2018-09-25T13:12:33.147Z,40.22
2018-09-25T13:15:07.828Z,40.76
2018-09-25T13:17:42.534Z,41.20
2018-09-25T13:20:17.259Z,41.77
2018-09-25T13:22:52.088Z,40.62
2018-09-25T13:25:27.038Z,40.72
2018-09-25T13:28:01.769Z,41.03
2018-09-25T13:30:36.540Z,40.60
2018-09-25T13:33:11.652Z,40.61
2018-09-25T13:35:46.646Z,40.69
2018-09-25T13:38:21.287Z,39.17
2018-09-25T13:40:55.843Z,38.65
2018-09-25T13:43:30.679Z,38.45
2018-09-25T13:46:05.419Z,39.07
2018-09-25T13:48:40.026Z,39.17
2018-09-25T13:51:14.751Z,39.01
2018-09-25T13:53:49.412Z,39.60
2018-09-25T13:56:24.481Z,39.62
2018-09-25T13:58:59.480Z,39.25
2018-09-25T14:01:34.151Z,39.81
2018-09-25T14:04:08.975Z,39.99
2018-09-25T14:06:43.588Z,39.30
2018-09-25T14:09:18.265Z,40.35
2018-09-25T14:11:53.163Z,40.06
2018-09-25T14:14:27.751Z,40.22
2018-09-25T14:17:02.351Z,40.54
2018-09-25T14:19:37.236Z,40.21
2018-09-25T14:22:12.105Z,40.17
2018-09-25T14:24:46.831Z,40.58
2018-09-25T14:27:21.900Z,39.94
2018-09-25T14:29:56.667Z,39.58
2018-09-25T14:32:31.336Z,41.05
2018-09-25T14:35:06.048Z,40.15
2018-09-25T14:37:40.752Z,40.87
2018-09-25T14:40:15.468Z,40.71
2018-09-25T14:42:50.250Z,41.50
2018-09-25T14:45:24.911Z,41.15
2018-09-25T14:47:59.713Z,40.74
2018-09-25T14:50:34.411Z,41.08
2018-09-25T14:53:09.446Z,41.01
2018-09-25T14:55:44.216Z,40.75
2018-09-25T14:58:18.972Z,41.04
2018-09-25T15:00:53.942Z,41.38
2018-09-25T15:03:28.803Z,41.08
2018-09-25T15:06:03.808Z,40.76
2018-09-25T15:08:38.767Z,41.35
2018-09-25T15:11:13.418Z,42.26
2018-09-25T15:13:48.332Z,42.06
2018-09-25T15:16:22.905Z,42.22
2018-09-25T15:18:57.582Z,42.69
2018-09-25T15:21:32.383Z,41.87
2018-09-25T15:24:07.088Z,42.52
2018-09-25T15:26:41.848Z,42.67
2018-09-25T15:29:16.839Z,42.93
2018-09-25T15:31:51.388Z,42.90
2018-09-25T15:34:26.334Z,42.94
2018-09-25T15:37:00.960Z,43.05
2018-09-25T15:39:35.727Z,43.50
2018-09-25T15:42:10.672Z,43.56
2018-09-25T15:44:45.507Z,43.25
2018-09-25T15:47:20.249Z,42.98
2018-09-25T15:49:54.952Z,43.06
2018-09-25T15:52:30.126Z,43.26
2018-09-25T15:55:04.849Z,42.92
2018-09-25T15:57:39.765Z,43.23
2018-09-25T16:00:14.557Z,43.07
2018-09-25T16:02:49.472Z,42.97
2018-09-25T16:05:24.136Z,43.25
2018-09-25T16:07:58.880Z,42.79
2018-09-25T16:10:33.684Z,42.79
2018-09-25T16:13:08.555Z,43.68
2018-09-25T16:15:43.195Z,42.76
2018-09-25T16:18:18.409Z,43.02
2018-09-25T16:20:53.524Z,42.59
2018-09-25T16:23:28.205Z,43.32
2018-09-25T16:26:03.369Z,43.03
2018-09-25T16:28:38.139Z,43.21
2018-09-25T16:31:12.800Z,43.50
2018-09-25T16:33:47.653Z,43.85
2018-09-25T16:36:22.665Z,44.12
2018-09-25T16:38:57.596Z,44.54
2018-09-25T16:41:32.253Z,44.37
2018-09-25T16:44:07.536Z,44.56
2018-09-25T16:46:42.128Z,44.50
2018-09-25T16:49:16.868Z,44.43
2018-09-25T16:51:51.613Z,44.46
2018-09-25T16:54:26.356Z,45.10
2018-09-25T16:57:01.147Z,44.96
2018-09-25T16:59:36.185Z,44.50
2018-09-25T17:02:11.292Z,45.05
2018-09-25T17:04:46.163Z,45.56
2018-09-25T17:07:20.760Z,45.72
2018-09-25T17:09:55.432Z,45.52
2018-09-25T17:12:30.204Z,46.03
2018-09-25T17:15:05.195Z,46.76
2018-09-25T17:17:41.255Z,46.24
2018-09-25T17:20:16.107Z,46.36
2018-09-25T17:22:50.991Z,47.13
2018-09-25T17:25:26.182Z,47.09
2018-09-25T17:28:01.107Z,47.88
2018-09-25T17:30:35.816Z,47.89
2018-09-25T17:33:10.532Z,47.54
2018-09-25T17:35:45.299Z,48.11
2018-09-25T17:38:19.863Z,48.63
2018-09-25T17:40:54.745Z,48.57
2018-09-25T17:43:29.628Z,49.04
2018-09-25T17:46:04.761Z,49.96
2018-09-25T17:48:47.464Z,50.92
2018-09-25T17:51:22.622Z,51.21
2018-09-25T17:53:57.217Z,50.94
2018-09-25T17:56:32.182Z,51.51
2018-09-25T17:59:06.924Z,51.20
2018-09-25T18:01:42.020Z,51.63
2018-09-25T18:04:16.904Z,52.54
2018-09-25T18:06:51.775Z,52.57
2018-09-25T18:09:26.780Z,53.73
2018-09-25T18:12:01.404Z,54.29
2018-09-25T18:14:36.086Z,54.25
2018-09-25T18:17:11.039Z,54.70
2018-09-25T18:19:46.285Z,54.54
2018-09-25T18:22:21.235Z,54.50
2018-09-25T18:24:56.245Z,54.68
2018-09-25T18:27:30.951Z,54.82
2018-09-25T18:30:05.728Z,54.83
2018-09-25T18:32:40.468Z,54.49
2018-09-25T18:35:15.314Z,55.14
2018-09-25T18:37:50.068Z,54.71
2018-09-25T18:40:24.615Z,55.04
2018-09-25T18:42:59.460Z,54.48
2018-09-25T18:45:34.245Z,54.71
2018-09-25T18:48:09.127Z,54.88
2018-09-25T18:50:44.602Z,54.55
2018-09-25T18:53:19.609Z,55.07
2018-09-25T18:55:54.498Z,55.01
2018-09-25T18:58:29.172Z,56.05
2018-09-25T19:01:04.187Z,56.11
2018-09-25T19:03:38.905Z,56.61
2018-09-25T19:06:13.676Z,56.60
2018-09-25T19:08:48.404Z,56.83
2018-09-25T19:11:23.637Z,56.81
2018-09-25T19:13:58.412Z,57.34
2018-09-25T19:16:33.214Z,57.33
2018-09-25T19:19:08.236Z,57.78
2018-09-25T19:21:43.347Z,57.91
2018-09-25T19:24:17.971Z,57.18
2018-09-25T19:26:52.752Z,57.92
2018-09-25T19:29:27.581Z,57.92
2018-09-25T19:32:02.438Z,57.16
2018-09-25T19:34:37.349Z,57.35
2018-09-25T19:37:12.676Z,56.48
2018-09-25T19:39:47.425Z,57.00
2018-09-25T19:42:22.423Z,56.27
2018-09-25T19:44:57.352Z,56.56
2018-09-25T19:47:31.996Z,56.29
2018-09-25T19:50:06.840Z,57.55
2018-09-25T19:52:41.720Z,58.54
2018-09-25T19:55:16.583Z,59.41
2018-09-25T19:57:51.298Z,61.11
2018-09-25T20:00:26.129Z,61.09
2018-09-25T20:03:00.855Z,60.36
2018-09-25T20:05:35.613Z,59.55
2018-09-25T20:08:10.492Z,60.34
2018-09-25T20:10:45.307Z,59.97
2018-09-25T20:13:20.153Z,60.29
2018-09-25T20:15:55.115Z,59.46
2018-09-25T20:18:30.091Z,60.43
2018-09-25T20:21:04.893Z,59.61
2018-09-25T20:23:39.721Z,59.75
2018-09-25T20:26:14.375Z,60.23
2018-09-25T20:28:49.162Z,58.72
2018-09-25T20:31:23.917Z,60.04
2018-09-25T20:33:58.570Z,59.48
2018-09-25T20:36:33.180Z,58.86
2018-09-25T20:39:07.829Z,58.96
2018-09-25T20:41:42.731Z,56.86
2018-09-25T20:44:17.541Z,57.51
2018-09-25T20:46:52.185Z,58.60
2018-09-25T20:49:26.951Z,58.83
2018-09-25T20:52:01.874Z,59.79
2018-09-25T20:54:36.892Z,60.37
2018-09-25T20:57:12.151Z,61.46
2018-09-25T20:59:47.015Z,61.64
2018-09-25T21:02:21.915Z,61.68
2018-09-25T21:04:56.535Z,62.35
2018-09-25T21:07:31.191Z,62.35
2018-09-25T21:10:05.935Z,62.43
2018-09-25T21:12:40.989Z,62.67
2018-09-25T21:15:16.311Z,63.36
2018-09-25T21:17:51.239Z,63.48
2018-09-25T21:20:26.071Z,63.10
2018-09-25T21:23:00.813Z,62.66
2018-09-25T21:25:35.927Z,63.71
2018-09-25T21:28:10.580Z,62.77
2018-09-25T21:30:45.317Z,62.85
2018-09-25T21:33:20.150Z,62.44
2018-09-25T21:35:55.079Z,62.91
2018-09-25T21:38:29.851Z,63.13
2018-09-25T21:41:04.588Z,62.93
2018-09-25T21:43:39.282Z,64.21
2018-09-25T21:46:14.549Z,64.87
2018-09-25T21:48:49.435Z,65.56
2018-09-25T21:51:24.489Z,66.00
2018-09-25T21:53:59.284Z,65.66
2018-09-25T21:56:33.932Z,66.20
2018-09-25T21:59:08.732Z,66.83
2018-09-25T22:01:43.468Z,66.55
2018-09-25T22:04:18.057Z,67.52
2018-09-25T22:06:52.671Z,67.36
2018-09-25T22:09:27.400Z,67.28
2018-09-25T22:12:02.181Z,67.15
2018-09-25T22:14:36.956Z,68.34
2018-09-25T22:17:11.787Z,68.36
2018-09-25T22:19:46.435Z,67.94
2018-09-25T22:22:21.001Z,66.79
2018-09-25T22:24:55.711Z,67.54
2018-09-25T22:27:30.603Z,67.58
2018-09-25T22:30:05.256Z,67.97
2018-09-25T22:32:40.045Z,68.69
2018-09-25T22:35:15.055Z,68.61
2018-09-25T22:37:50.121Z,69.30
2018-09-25T22:40:24.748Z,69.44
2018-09-25T22:42:59.303Z,70.05
2018-09-25T22:45:34.023Z,69.57
2018-09-25T22:48:08.669Z,70.40
2018-09-25T22:50:43.671Z,70.19
2018-09-25T22:53:18.621Z,70.24
2018-09-25T22:55:53.472Z,70.90
2018-09-25T22:58:28.248Z,70.21
2018-09-25T23:01:02.899Z,71.10
2018-09-25T23:03:37.564Z,70.50
2018-09-25T23:06:12.685Z,70.46
2018-09-25T23:08:47.454Z,70.06
2018-09-25T23:11:22.216Z,70.29
2018-09-25T23:13:57.212Z,70.98
2018-09-25T23:16:31.859Z,70.56
2018-09-25T23:19:06.824Z,70.15
2018-09-25T23:21:42.786Z,71.21
2018-09-25T23:24:17.702Z,70.23
2018-09-25T23:26:52.340Z,70.84
2018-09-25T23:29:27.208Z,71.27
2018-09-25T23:32:02.161Z,70.63
2018-09-25T23:34:36.975Z,70.90
2018-09-25T23:37:11.882Z,70.83
2018-09-25T23:39:52.552Z,71.49
2018-09-25T23:42:36.215Z,71.98
2018-09-25T23:45:11.044Z,71.94
2018-09-25T23:47:49.592Z,71.39
2018-09-25T23:50:24.699Z,72.13
2018-09-25T23:53:01.229Z,71.73
2018-09-25T23:55:41.824Z,71.80
2018-09-25T23:58:16.054Z,71.19
